sensor_id;sensor_type;location;lat;lon;timestamp;P1;durP1;ratioP1;P2;durP2;ratioP2
83550;SDS011;74617;47.082;15.524;2023-12-22T00:02:02;2.40;;;1.42;;
83550;SDS011;74617;47.082;15.524;2023-12-22T00:04:27;5.50;;;1.48;;
83550;SDS011;74617;47.082;15.524;2023-12-22T00:06:53;3.17;;;1.30;;
83550;SDS011;74617;47.082;15.524;2023-12-22T00:09:19;3.83;;;1.52;;
83550;SDS011;74617;47.082;15.524;2023-12-22T00:11:45;4.03;;;1.88;;
83550;SDS011;74617;47.082;15.524;2023-12-22T00:14:10;3.60;;;1.48;;
83550;SDS011;74617;47.082;15.524;2023-12-22T00:16:36;2.45;;;1.20;;
83550;SDS011;74617;47.082;15.524;2023-12-22T00:19:03;2.55;;;1.42;;
83550;SDS011;74617;47.082;15.524;2023-12-22T00:21:28;1.75;;;1.23;;
83550;SDS011;74617;47.082;15.524;2023-12-22T00:23:54;5.03;;;1.90;;
83550;SDS011;74617;47.082;15.524;2023-12-22T00:26:19;4.30;;;1.40;;
83550;SDS011;74617;47.082;15.524;2023-12-22T00:28:44;3.63;;;1.55;;
83550;SDS011;74617;47.082;15.524;2023-12-22T00:31:10;3.88;;;1.65;;
83550;SDS011;74617;47.082;15.524;2023-12-22T00:33:37;3.15;;;1.40;;
83550;SDS011;74617;47.082;15.524;2023-12-22T00:36:03;2.63;;;1.50;;
83550;SDS011;74617;47.082;15.524;2023-12-22T00:38:29;2.08;;;1.20;;
83550;SDS011;74617;47.082;15.524;2023-12-22T00:40:54;2.60;;;1.27;;
83550;SDS011;74617;47.082;15.524;2023-12-22T00:43:20;3.72;;;1.33;;
83550;SDS011;74617;47.082;15.524;2023-12-22T00:45:45;3.72;;;1.60;;
83550;SDS011;74617;47.082;15.524;2023-12-22T00:48:10;3.22;;;1.48;;
83550;SDS011;74617;47.082;15.524;2023-12-22T00:50:36;2.65;;;1.23;;
83550;SDS011;74617;47.082;15.524;2023-12-22T00:53:01;2.65;;;1.33;;
83550;SDS011;74617;47.082;15.524;2023-12-22T00:55:26;3.63;;;1.23;;
83550;SDS011;74617;47.082;15.524;2023-12-22T00:57:52;2.55;;;1.15;;
83550;SDS011;74617;47.082;15.524;2023-12-22T01:00:17;3.00;;;1.25;;
83550;SDS011;74617;47.082;15.524;2023-12-22T01:02:43;2.70;;;1.48;;
83550;SDS011;74617;47.082;15.524;2023-12-22T01:05:09;2.17;;;1.40;;
83550;SDS011;74617;47.082;15.524;2023-12-22T01:07:35;2.83;;;1.55;;
83550;SDS011;74617;47.082;15.524;2023-12-22T01:10:00;5.53;;;1.85;;
83550;SDS011;74617;47.082;15.524;2023-12-22T01:12:30;2.30;;;1.38;;
83550;SDS011;74617;47.082;15.524;2023-12-22T01:14:55;3.70;;;1.25;;
83550;SDS011;74617;47.082;15.524;2023-12-22T01:17:21;4.00;;;1.40;;
83550;SDS011;74617;47.082;15.524;2023-12-22T01:19:47;2.63;;;1.40;;
83550;SDS011;74617;47.082;15.524;2023-12-22T01:22:12;2.22;;;1.13;;
83550;SDS011;74617;47.082;15.524;2023-12-22T01:24:38;3.83;;;1.42;;
83550;SDS011;74617;47.082;15.524;2023-12-22T01:27:06;2.65;;;1.40;;
83550;SDS011;74617;47.082;15.524;2023-12-22T01:29:32;2.05;;;1.10;;
83550;SDS011;74617;47.082;15.524;2023-12-22T01:31:57;1.25;;;0.77;;
83550;SDS011;74617;47.082;15.524;2023-12-22T01:34:23;2.15;;;1.10;;
83550;SDS011;74617;47.082;15.524;2023-12-22T01:36:48;3.03;;;1.48;;
83550;SDS011;74617;47.082;15.524;2023-12-22T01:39:14;2.35;;;1.20;;
83550;SDS011;74617;47.082;15.524;2023-12-22T01:41:40;3.25;;;1.40;;
83550;SDS011;74617;47.082;15.524;2023-12-22T01:44:05;2.35;;;1.15;;
83550;SDS011;74617;47.082;15.524;2023-12-22T01:46:31;3.15;;;1.52;;
83550;SDS011;74617;47.082;15.524;2023-12-22T01:48:57;1.88;;;1.00;;
83550;SDS011;74617;47.082;15.524;2023-12-22T01:51:25;2.22;;;1.10;;
83550;SDS011;74617;47.082;15.524;2023-12-22T01:53:52;2.45;;;1.25;;
83550;SDS011;74617;47.082;15.524;2023-12-22T01:56:18;2.53;;;1.10;;
83550;SDS011;74617;47.082;15.524;2023-12-22T01:58:43;2.58;;;1.23;;
83550;SDS011;74617;47.082;15.524;2023-12-22T02:01:09;1.67;;;1.10;;
83550;SDS011;74617;47.082;15.524;2023-12-22T02:03:35;5.57;;;1.10;;
83550;SDS011;74617;47.082;15.524;2023-12-22T02:06:01;3.67;;;1.27;;
83550;SDS011;74617;47.082;15.524;2023-12-22T02:08:28;2.78;;;1.00;;
83550;SDS011;74617;47.082;15.524;2023-12-22T02:10:57;1.38;;;0.88;;
83550;SDS011;74617;47.082;15.524;2023-12-22T02:13:22;2.15;;;1.10;;
83550;SDS011;74617;47.082;15.524;2023-12-22T02:15:48;2.28;;;1.08;;
83550;SDS011;74617;47.082;15.524;2023-12-22T02:18:26;2.75;;;1.33;;
83550;SDS011;74617;47.082;15.524;2023-12-22T02:20:55;2.33;;;1.10;;
83550;SDS011;74617;47.082;15.524;2023-12-22T02:23:21;4.97;;;1.20;;
83550;SDS011;74617;47.082;15.524;2023-12-22T02:25:46;2.72;;;1.08;;
83550;SDS011;74617;47.082;15.524;2023-12-22T02:28:15;2.00;;;1.15;;
83550;SDS011;74617;47.082;15.524;2023-12-22T02:33:20;1.83;;;1.05;;
83550;SDS011;74617;47.082;15.524;2023-12-22T02:35:49;1.92;;;1.00;;
83550;SDS011;74617;47.082;15.524;2023-12-22T02:38:16;2.03;;;1.05;;
83550;SDS011;74617;47.082;15.524;2023-12-22T02:40:42;2.88;;;1.30;;
83550;SDS011;74617;47.082;15.524;2023-12-22T02:43:09;2.55;;;0.98;;
83550;SDS011;74617;47.082;15.524;2023-12-22T02:45:34;0.90;;;0.70;;
83550;SDS011;74617;47.082;15.524;2023-12-22T02:48:00;2.50;;;1.15;;
83550;SDS011;74617;47.082;15.524;2023-12-22T02:50:25;2.10;;;1.10;;
83550;SDS011;74617;47.082;15.524;2023-12-22T02:52:51;2.50;;;0.77;;
83550;SDS011;74617;47.082;15.524;2023-12-22T02:55:16;3.42;;;1.08;;
83550;SDS011;74617;47.082;15.524;2023-12-22T02:57:41;2.97;;;1.15;;
83550;SDS011;74617;47.082;15.524;2023-12-22T03:00:07;1.33;;;0.80;;
83550;SDS011;74617;47.082;15.524;2023-12-22T03:02:33;5.78;;;1.17;;
83550;SDS011;74617;47.082;15.524;2023-12-22T03:04:58;2.92;;;1.17;;
83550;SDS011;74617;47.082;15.524;2023-12-22T03:07:23;5.22;;;1.13;;
83550;SDS011;74617;47.082;15.524;2023-12-22T03:09:49;3.15;;;1.08;;
83550;SDS011;74617;47.082;15.524;2023-12-22T03:12:14;2.65;;;1.10;;
83550;SDS011;74617;47.082;15.524;2023-12-22T03:14:39;4.22;;;1.40;;
83550;SDS011;74617;47.082;15.524;2023-12-22T03:17:05;1.73;;;0.95;;
83550;SDS011;74617;47.082;15.524;2023-12-22T03:19:31;1.85;;;1.00;;
83550;SDS011;74617;47.082;15.524;2023-12-22T03:21:58;1.77;;;0.93;;
83550;SDS011;74617;47.082;15.524;2023-12-22T03:24:23;1.63;;;0.90;;
83550;SDS011;74617;47.082;15.524;2023-12-22T03:26:50;2.03;;;0.95;;
83550;SDS011;74617;47.082;15.524;2023-12-22T03:29:15;1.67;;;0.90;;
83550;SDS011;74617;47.082;15.524;2023-12-22T03:31:41;2.60;;;1.00;;
83550;SDS011;74617;47.082;15.524;2023-12-22T03:34:06;2.28;;;1.00;;
83550;SDS011;74617;47.082;15.524;2023-12-22T03:36:32;2.60;;;0.95;;
83550;SDS011;74617;47.082;15.524;2023-12-22T03:38:57;4.55;;;1.30;;
83550;SDS011;74617;47.082;15.524;2023-12-22T03:41:23;2.15;;;0.88;;
83550;SDS011;74617;47.082;15.524;2023-12-22T03:43:48;1.90;;;0.85;;
83550;SDS011;74617;47.082;15.524;2023-12-22T03:46:14;1.58;;;0.73;;
83550;SDS011;74617;47.082;15.524;2023-12-22T03:48:39;1.80;;;0.98;;
83550;SDS011;74617;47.082;15.524;2023-12-22T03:51:04;2.17;;;0.70;;
83550;SDS011;74617;47.082;15.524;2023-12-22T03:53:30;2.10;;;0.90;;
83550;SDS011;74617;47.082;15.524;2023-12-22T03:55:55;1.25;;;0.73;;
83550;SDS011;74617;47.082;15.524;2023-12-22T03:58:21;2.95;;;0.90;;
83550;SDS011;74617;47.082;15.524;2023-12-22T04:00:46;1.48;;;0.80;;
83550;SDS011;74617;47.082;15.524;2023-12-22T04:03:12;0.95;;;0.68;;
83550;SDS011;74617;47.082;15.524;2023-12-22T04:05:37;2.80;;;1.10;;
83550;SDS011;74617;47.082;15.524;2023-12-22T04:08:03;2.33;;;1.25;;
83550;SDS011;74617;47.082;15.524;2023-12-22T04:10:29;1.42;;;0.77;;
83550;SDS011;74617;47.082;15.524;2023-12-22T04:12:54;1.80;;;1.00;;
83550;SDS011;74617;47.082;15.524;2023-12-22T04:15:19;1.67;;;0.90;;
83550;SDS011;74617;47.082;15.524;2023-12-22T04:17:45;1.77;;;0.80;;
83550;SDS011;74617;47.082;15.524;2023-12-22T04:20:10;1.35;;;0.80;;
83550;SDS011;74617;47.082;15.524;2023-12-22T04:22:36;1.88;;;0.68;;
83550;SDS011;74617;47.082;15.524;2023-12-22T04:25:01;1.42;;;0.80;;
83550;SDS011;74617;47.082;15.524;2023-12-22T04:27:26;1.05;;;0.63;;
83550;SDS011;74617;47.082;15.524;2023-12-22T04:29:52;1.10;;;0.68;;
83550;SDS011;74617;47.082;15.524;2023-12-22T04:32:17;1.60;;;0.98;;
83550;SDS011;74617;47.082;15.524;2023-12-22T04:34:43;1.55;;;0.77;;
83550;SDS011;74617;47.082;15.524;2023-12-22T04:37:08;1.75;;;0.93;;
83550;SDS011;74617;47.082;15.524;2023-12-22T04:39:34;1.70;;;0.80;;
83550;SDS011;74617;47.082;15.524;2023-12-22T04:42:00;2.38;;;0.95;;
83550;SDS011;74617;47.082;15.524;2023-12-22T04:44:25;1.15;;;0.73;;
83550;SDS011;74617;47.082;15.524;2023-12-22T04:46:50;1.98;;;1.02;;
83550;SDS011;74617;47.082;15.524;2023-12-22T04:49:16;2.00;;;0.85;;
83550;SDS011;74617;47.082;15.524;2023-12-22T04:51:42;1.13;;;0.85;;
83550;SDS011;74617;47.082;15.524;2023-12-22T04:54:07;1.38;;;0.88;;
83550;SDS011;74617;47.082;15.524;2023-12-22T04:56:33;3.85;;;1.42;;
83550;SDS011;74617;47.082;15.524;2023-12-22T04:58:58;1.50;;;1.00;;
83550;SDS011;74617;47.082;15.524;2023-12-22T05:01:23;3.88;;;0.90;;
83550;SDS011;74617;47.082;15.524;2023-12-22T05:03:49;1.95;;;1.00;;
83550;SDS011;74617;47.082;15.524;2023-12-22T05:06:14;1.60;;;0.73;;
83550;SDS011;74617;47.082;15.524;2023-12-22T05:08:39;2.08;;;1.05;;
83550;SDS011;74617;47.082;15.524;2023-12-22T05:11:05;2.45;;;1.17;;
83550;SDS011;74617;47.082;15.524;2023-12-22T05:13:30;2.08;;;0.88;;
83550;SDS011;74617;47.082;15.524;2023-12-22T05:15:56;1.70;;;1.00;;
83550;SDS011;74617;47.082;15.524;2023-12-22T05:18:21;1.48;;;0.95;;
83550;SDS011;74617;47.082;15.524;2023-12-22T05:20:46;2.67;;;1.30;;
83550;SDS011;74617;47.082;15.524;2023-12-22T05:23:12;2.00;;;1.00;;
83550;SDS011;74617;47.082;15.524;2023-12-22T05:25:37;2.15;;;1.08;;
83550;SDS011;74617;47.082;15.524;2023-12-22T05:28:02;2.20;;;1.00;;
83550;SDS011;74617;47.082;15.524;2023-12-22T05:30:28;3.47;;;1.35;;
83550;SDS011;74617;47.082;15.524;2023-12-22T05:32:53;1.50;;;0.65;;
83550;SDS011;74617;47.082;15.524;2023-12-22T05:35:20;2.30;;;1.20;;
83550;SDS011;74617;47.082;15.524;2023-12-22T05:37:46;2.08;;;1.42;;
83550;SDS011;74617;47.082;15.524;2023-12-22T05:40:14;2.42;;;1.17;;
83550;SDS011;74617;47.082;15.524;2023-12-22T05:42:39;4.32;;;1.10;;
83550;SDS011;74617;47.082;15.524;2023-12-22T05:45:05;2.47;;;1.40;;
83550;SDS011;74617;47.082;15.524;2023-12-22T05:47:31;2.20;;;1.05;;
83550;SDS011;74617;47.082;15.524;2023-12-22T05:49:57;4.70;;;1.50;;
83550;SDS011;74617;47.082;15.524;2023-12-22T05:52:22;3.58;;;1.40;;
83550;SDS011;74617;47.082;15.524;2023-12-22T05:54:48;3.67;;;1.23;;
83550;SDS011;74617;47.082;15.524;2023-12-22T05:57:13;3.13;;;1.42;;
83550;SDS011;74617;47.082;15.524;2023-12-22T05:59:38;3.40;;;1.80;;
83550;SDS011;74617;47.082;15.524;2023-12-22T06:02:04;2.03;;;1.30;;
83550;SDS011;74617;47.082;15.524;2023-12-22T06:04:29;5.57;;;1.70;;
83550;SDS011;74617;47.082;15.524;2023-12-22T06:06:55;1.67;;;0.98;;
83550;SDS011;74617;47.082;15.524;2023-12-22T06:09:20;3.50;;;1.48;;
83550;SDS011;74617;47.082;15.524;2023-12-22T06:11:47;2.53;;;1.50;;
83550;SDS011;74617;47.082;15.524;2023-12-22T06:14:13;3.35;;;1.35;;
83550;SDS011;74617;47.082;15.524;2023-12-22T06:16:38;2.33;;;1.40;;
83550;SDS011;74617;47.082;15.524;2023-12-22T06:19:04;2.65;;;1.70;;
83550;SDS011;74617;47.082;15.524;2023-12-22T06:21:30;2.97;;;1.48;;
83550;SDS011;74617;47.082;15.524;2023-12-22T06:23:55;2.50;;;1.45;;
83550;SDS011;74617;47.082;15.524;2023-12-22T06:26:21;5.05;;;1.95;;
83550;SDS011;74617;47.082;15.524;2023-12-22T06:28:46;3.97;;;1.58;;
83550;SDS011;74617;47.082;15.524;2023-12-22T06:31:18;3.67;;;1.80;;
83550;SDS011;74617;47.082;15.524;2023-12-22T06:33:44;3.50;;;1.98;;
83550;SDS011;74617;47.082;15.524;2023-12-22T06:36:23;3.40;;;1.42;;
83550;SDS011;74617;47.082;15.524;2023-12-22T06:38:53;3.67;;;1.77;;
83550;SDS011;74617;47.082;15.524;2023-12-22T06:43:45;4.38;;;2.35;;
83550;SDS011;74617;47.082;15.524;2023-12-22T06:46:19;3.38;;;1.70;;
83550;SDS011;74617;47.082;15.524;2023-12-22T06:48:45;3.40;;;1.52;;
83550;SDS011;74617;47.082;15.524;2023-12-22T06:51:20;3.70;;;1.90;;
83550;SDS011;74617;47.082;15.524;2023-12-22T06:53:47;2.47;;;1.33;;
83550;SDS011;74617;47.082;15.524;2023-12-22T06:58:46;3.75;;;1.77;;
83550;SDS011;74617;47.082;15.524;2023-12-22T07:03:46;4.25;;;2.63;;
83550;SDS011;74617;47.082;15.524;2023-12-22T07:06:19;3.83;;;1.98;;
83550;SDS011;74617;47.082;15.524;2023-12-22T07:11:43;3.85;;;1.65;;
83550;SDS011;74617;47.082;15.524;2023-12-22T07:14:11;3.33;;;1.73;;
83550;SDS011;74617;47.082;15.524;2023-12-22T07:16:36;3.97;;;2.08;;
83550;SDS011;74617;47.082;15.524;2023-12-22T07:19:02;5.88;;;2.03;;
83550;SDS011;74617;47.082;15.524;2023-12-22T07:21:27;3.70;;;1.52;;
83550;SDS011;74617;47.082;15.524;2023-12-22T07:23:53;2.92;;;1.60;;
83550;SDS011;74617;47.082;15.524;2023-12-22T07:26:18;2.88;;;1.58;;
83550;SDS011;74617;47.082;15.524;2023-12-22T07:28:44;2.75;;;1.63;;
83550;SDS011;74617;47.082;15.524;2023-12-22T07:31:09;4.10;;;1.50;;
83550;SDS011;74617;47.082;15.524;2023-12-22T07:33:34;3.75;;;1.27;;
83550;SDS011;74617;47.082;15.524;2023-12-22T07:36:00;3.13;;;1.63;;
83550;SDS011;74617;47.082;15.524;2023-12-22T07:38:25;2.65;;;1.40;;
83550;SDS011;74617;47.082;15.524;2023-12-22T07:40:51;4.07;;;1.80;;
83550;SDS011;74617;47.082;15.524;2023-12-22T07:43:16;3.38;;;1.50;;
83550;SDS011;74617;47.082;15.524;2023-12-22T07:45:41;3.30;;;1.42;;
83550;SDS011;74617;47.082;15.524;2023-12-22T07:48:07;4.85;;;1.83;;
83550;SDS011;74617;47.082;15.524;2023-12-22T07:50:33;3.05;;;1.70;;
83550;SDS011;74617;47.082;15.524;2023-12-22T07:52:58;2.42;;;1.35;;
83550;SDS011;74617;47.082;15.524;2023-12-22T07:55:24;3.25;;;1.73;;
83550;SDS011;74617;47.082;15.524;2023-12-22T07:57:50;3.35;;;1.50;;
83550;SDS011;74617;47.082;15.524;2023-12-22T08:00:16;2.83;;;1.48;;
83550;SDS011;74617;47.082;15.524;2023-12-22T08:02:42;3.25;;;1.75;;
83550;SDS011;74617;47.082;15.524;2023-12-22T08:05:07;4.85;;;1.50;;
83550;SDS011;74617;47.082;15.524;2023-12-22T08:07:33;3.80;;;1.63;;
83550;SDS011;74617;47.082;15.524;2023-12-22T08:09:59;3.25;;;1.65;;
83550;SDS011;74617;47.082;15.524;2023-12-22T08:12:24;3.78;;;1.60;;
83550;SDS011;74617;47.082;15.524;2023-12-22T08:14:49;3.20;;;1.48;;
83550;SDS011;74617;47.082;15.524;2023-12-22T08:17:15;2.67;;;1.55;;
83550;SDS011;74617;47.082;15.524;2023-12-22T08:19:40;2.80;;;1.25;;
83550;SDS011;74617;47.082;15.524;2023-12-22T08:22:09;2.55;;;1.20;;
83550;SDS011;74617;47.082;15.524;2023-12-22T08:24:35;3.00;;;1.50;;
83550;SDS011;74617;47.082;15.524;2023-12-22T08:27:00;2.97;;;1.73;;
83550;SDS011;74617;47.082;15.524;2023-12-22T08:29:25;2.15;;;1.02;;
83550;SDS011;74617;47.082;15.524;2023-12-22T08:31:51;3.10;;;1.27;;
83550;SDS011;74617;47.082;15.524;2023-12-22T08:34:17;2.95;;;1.58;;
83550;SDS011;74617;47.082;15.524;2023-12-22T08:36:42;3.72;;;1.88;;
83550;SDS011;74617;47.082;15.524;2023-12-22T08:39:07;2.55;;;1.35;;
83550;SDS011;74617;47.082;15.524;2023-12-22T08:41:33;3.15;;;1.52;;
83550;SDS011;74617;47.082;15.524;2023-12-22T08:44:04;2.47;;;1.17;;
83550;SDS011;74617;47.082;15.524;2023-12-22T08:46:30;3.00;;;1.42;;
83550;SDS011;74617;47.082;15.524;2023-12-22T08:48:56;2.75;;;1.40;;
83550;SDS011;74617;47.082;15.524;2023-12-22T08:51:22;3.33;;;1.20;;
83550;SDS011;74617;47.082;15.524;2023-12-22T08:53:47;3.58;;;1.60;;
83550;SDS011;74617;47.082;15.524;2023-12-22T08:56:14;3.42;;;1.52;;
83550;SDS011;74617;47.082;15.524;2023-12-22T08:58:41;1.95;;;1.02;;
83550;SDS011;74617;47.082;15.524;2023-12-22T09:01:07;3.53;;;1.50;;
83550;SDS011;74617;47.082;15.524;2023-12-22T09:03:33;2.67;;;1.30;;
83550;SDS011;74617;47.082;15.524;2023-12-22T09:06:01;4.53;;;1.65;;
83550;SDS011;74617;47.082;15.524;2023-12-22T09:08:27;2.55;;;1.25;;
83550;SDS011;74617;47.082;15.524;2023-12-22T09:10:52;2.25;;;1.17;;
83550;SDS011;74617;47.082;15.524;2023-12-22T09:13:18;2.97;;;1.38;;
83550;SDS011;74617;47.082;15.524;2023-12-22T09:15:43;3.60;;;1.48;;
83550;SDS011;74617;47.082;15.524;2023-12-22T09:18:11;2.70;;;1.45;;
83550;SDS011;74617;47.082;15.524;2023-12-22T09:20:38;3.05;;;1.35;;
83550;SDS011;74617;47.082;15.524;2023-12-22T09:23:04;3.45;;;1.25;;
83550;SDS011;74617;47.082;15.524;2023-12-22T09:25:33;2.08;;;1.02;;
83550;SDS011;74617;47.082;15.524;2023-12-22T09:27:58;2.38;;;1.15;;
83550;SDS011;74617;47.082;15.524;2023-12-22T09:30:23;2.92;;;1.40;;
83550;SDS011;74617;47.082;15.524;2023-12-22T09:32:49;2.72;;;1.40;;
83550;SDS011;74617;47.082;15.524;2023-12-22T09:35:14;2.47;;;1.10;;
83550;SDS011;74617;47.082;15.524;2023-12-22T09:37:40;2.38;;;1.25;;
83550;SDS011;74617;47.082;15.524;2023-12-22T09:40:06;2.33;;;1.33;;
83550;SDS011;74617;47.082;15.524;2023-12-22T09:42:35;2.50;;;1.10;;
83550;SDS011;74617;47.082;15.524;2023-12-22T09:45:02;4.10;;;1.27;;
83550;SDS011;74617;47.082;15.524;2023-12-22T09:47:29;3.88;;;1.08;;
83550;SDS011;74617;47.082;15.524;2023-12-22T09:49:56;2.95;;;1.10;;
83550;SDS011;74617;47.082;15.524;2023-12-22T09:52:23;3.38;;;1.60;;
83550;SDS011;74617;47.082;15.524;2023-12-22T09:54:48;2.05;;;1.35;;
83550;SDS011;74617;47.082;15.524;2023-12-22T09:57:14;2.25;;;1.05;;
83550;SDS011;74617;47.082;15.524;2023-12-22T09:59:40;2.17;;;1.23;;
83550;SDS011;74617;47.082;15.524;2023-12-22T10:02:06;3.03;;;1.40;;
83550;SDS011;74617;47.082;15.524;2023-12-22T10:04:33;2.97;;;1.20;;
83550;SDS011;74617;47.082;15.524;2023-12-22T10:06:59;3.85;;;1.40;;
83550;SDS011;74617;47.082;15.524;2023-12-22T10:09:27;2.42;;;1.13;;
83550;SDS011;74617;47.082;15.524;2023-12-22T10:11:53;2.25;;;1.25;;
83550;SDS011;74617;47.082;15.524;2023-12-22T10:14:21;4.28;;;1.55;;
83550;SDS011;74617;47.082;15.524;2023-12-22T10:16:52;2.65;;;1.10;;
83550;SDS011;74617;47.082;15.524;2023-12-22T10:19:18;3.30;;;1.13;;
83550;SDS011;74617;47.082;15.524;2023-12-22T10:21:45;2.13;;;0.80;;
83550;SDS011;74617;47.082;15.524;2023-12-22T10:24:36;2.85;;;1.10;;
83550;SDS011;74617;47.082;15.524;2023-12-22T10:27:01;2.67;;;0.98;;
83550;SDS011;74617;47.082;15.524;2023-12-22T10:29:27;1.58;;;0.85;;
83550;SDS011;74617;47.082;15.524;2023-12-22T10:31:52;3.13;;;1.27;;
83550;SDS011;74617;47.082;15.524;2023-12-22T10:34:18;1.80;;;0.65;;
83550;SDS011;74617;47.082;15.524;2023-12-22T10:36:43;2.38;;;1.30;;
83550;SDS011;74617;47.082;15.524;2023-12-22T10:39:10;2.05;;;0.88;;
83550;SDS011;74617;47.082;15.524;2023-12-22T10:41:35;1.48;;;0.88;;
83550;SDS011;74617;47.082;15.524;2023-12-22T10:44:00;3.97;;;1.20;;
83550;SDS011;74617;47.082;15.524;2023-12-22T10:46:26;1.73;;;0.98;;
83550;SDS011;74617;47.082;15.524;2023-12-22T10:48:54;1.67;;;0.90;;
83550;SDS011;74617;47.082;15.524;2023-12-22T10:53:46;1.70;;;1.10;;
83550;SDS011;74617;47.082;15.524;2023-12-22T10:56:12;3.53;;;1.38;;
83550;SDS011;74617;47.082;15.524;2023-12-22T10:58:37;2.08;;;0.98;;
83550;SDS011;74617;47.082;15.524;2023-12-22T11:01:04;1.55;;;0.68;;
83550;SDS011;74617;47.082;15.524;2023-12-22T11:03:32;1.25;;;0.65;;
83550;SDS011;74617;47.082;15.524;2023-12-22T11:06:03;1.98;;;0.90;;
83550;SDS011;74617;47.082;15.524;2023-12-22T11:08:31;1.52;;;0.82;;
83550;SDS011;74617;47.082;15.524;2023-12-22T11:11:00;2.92;;;1.00;;
83550;SDS011;74617;47.082;15.524;2023-12-22T11:13:35;2.30;;;1.15;;
83550;SDS011;74617;47.082;15.524;2023-12-22T11:16:03;2.63;;;1.15;;
83550;SDS011;74617;47.082;15.524;2023-12-22T11:18:30;1.80;;;0.88;;
83550;SDS011;74617;47.082;15.524;2023-12-22T11:20:56;1.38;;;0.80;;
83550;SDS011;74617;47.082;15.524;2023-12-22T11:23:21;1.15;;;0.85;;
83550;SDS011;74617;47.082;15.524;2023-12-22T11:25:48;2.15;;;0.80;;
83550;SDS011;74617;47.082;15.524;2023-12-22T11:28:18;2.20;;;0.93;;
83550;SDS011;74617;47.082;15.524;2023-12-22T11:30:47;2.45;;;0.98;;
83550;SDS011;74617;47.082;15.524;2023-12-22T11:33:15;1.90;;;0.98;;
83550;SDS011;74617;47.082;15.524;2023-12-22T11:35:41;2.70;;;0.93;;
83550;SDS011;74617;47.082;15.524;2023-12-22T11:38:08;1.45;;;0.77;;
83550;SDS011;74617;47.082;15.524;2023-12-22T11:40:35;1.92;;;0.80;;
83550;SDS011;74617;47.082;15.524;2023-12-22T11:43:00;2.50;;;0.80;;
83550;SDS011;74617;47.082;15.524;2023-12-22T11:45:29;2.05;;;1.17;;
83550;SDS011;74617;47.082;15.524;2023-12-22T11:47:55;1.55;;;0.70;;
83550;SDS011;74617;47.082;15.524;2023-12-22T11:50:27;2.22;;;0.75;;
83550;SDS011;74617;47.082;15.524;2023-12-22T11:52:55;2.25;;;0.80;;
83550;SDS011;74617;47.082;15.524;2023-12-22T12:01:12;2.55;;;0.82;;
83550;SDS011;74617;47.082;15.524;2023-12-22T12:03:40;3.50;;;1.00;;
83550;SDS011;74617;47.082;15.524;2023-12-22T12:08:38;1.50;;;0.80;;
83550;SDS011;74617;47.082;15.524;2023-12-22T12:11:04;2.10;;;0.68;;
83550;SDS011;74617;47.082;15.524;2023-12-22T12:13:30;1.83;;;0.80;;
83550;SDS011;74617;47.082;15.524;2023-12-22T12:15:58;1.33;;;0.73;;
83550;SDS011;74617;47.082;15.524;2023-12-22T12:20:54;2.22;;;0.93;;
83550;SDS011;74617;47.082;15.524;2023-12-22T12:23:20;2.10;;;0.93;;
83550;SDS011;74617;47.082;15.524;2023-12-22T12:25:48;1.00;;;0.60;;
83550;SDS011;74617;47.082;15.524;2023-12-22T12:28:14;2.45;;;0.90;;
83550;SDS011;74617;47.082;15.524;2023-12-22T12:30:43;1.40;;;0.52;;
83550;SDS011;74617;47.082;15.524;2023-12-22T12:33:11;2.95;;;1.00;;
83550;SDS011;74617;47.082;15.524;2023-12-22T12:35:38;1.67;;;0.82;;
83550;SDS011;74617;47.082;15.524;2023-12-22T12:38:04;1.08;;;0.63;;
83550;SDS011;74617;47.082;15.524;2023-12-22T12:40:29;0.88;;;0.47;;
83550;SDS011;74617;47.082;15.524;2023-12-22T12:42:57;0.88;;;0.60;;
83550;SDS011;74617;47.082;15.524;2023-12-22T12:45:23;2.50;;;0.90;;
83550;SDS011;74617;47.082;15.524;2023-12-22T12:47:59;2.70;;;1.08;;
83550;SDS011;74617;47.082;15.524;2023-12-22T12:50:26;4.38;;;0.68;;
83550;SDS011;74617;47.082;15.524;2023-12-22T12:52:52;2.20;;;0.90;;
83550;SDS011;74617;47.082;15.524;2023-12-22T12:55:21;1.58;;;0.90;;
83550;SDS011;74617;47.082;15.524;2023-12-22T12:57:48;0.75;;;0.55;;
83550;SDS011;74617;47.082;15.524;2023-12-22T13:00:16;1.77;;;0.80;;
83550;SDS011;74617;47.082;15.524;2023-12-22T13:02:48;1.15;;;0.65;;
83550;SDS011;74617;47.082;15.524;2023-12-22T13:05:20;1.48;;;0.60;;
83550;SDS011;74617;47.082;15.524;2023-12-22T13:07:47;1.02;;;0.55;;
83550;SDS011;74617;47.082;15.524;2023-12-22T13:10:45;2.30;;;0.80;;
83550;SDS011;74617;47.082;15.524;2023-12-22T13:13:05;1.77;;;0.70;;
83550;SDS011;74617;47.082;15.524;2023-12-22T13:15:31;0.93;;;0.45;;
83550;SDS011;74617;47.082;15.524;2023-12-22T13:17:56;1.27;;;0.68;;
83550;SDS011;74617;47.082;15.524;2023-12-22T13:20:22;1.27;;;0.70;;
83550;SDS011;74617;47.082;15.524;2023-12-22T13:22:48;3.65;;;1.10;;
83550;SDS011;74617;47.082;15.524;2023-12-22T13:25:14;1.08;;;0.55;;
83550;SDS011;74617;47.082;15.524;2023-12-22T13:27:46;1.65;;;0.70;;
83550;SDS011;74617;47.082;15.524;2023-12-22T13:30:12;0.68;;;0.38;;
83550;SDS011;74617;47.082;15.524;2023-12-22T13:32:38;1.45;;;0.50;;
83550;SDS011;74617;47.082;15.524;2023-12-22T13:35:04;1.85;;;0.75;;
83550;SDS011;74617;47.082;15.524;2023-12-22T13:37:30;1.45;;;0.60;;
83550;SDS011;74617;47.082;15.524;2023-12-22T13:39:56;1.98;;;0.75;;
83550;SDS011;74617;47.082;15.524;2023-12-22T13:42:22;1.27;;;0.47;;
83550;SDS011;74617;47.082;15.524;2023-12-22T13:44:49;1.33;;;0.60;;
83550;SDS011;74617;47.082;15.524;2023-12-22T13:47:15;2.60;;;0.70;;
83550;SDS011;74617;47.082;15.524;2023-12-22T13:49:42;1.35;;;0.80;;
83550;SDS011;74617;47.082;15.524;2023-12-22T13:52:31;2.58;;;1.10;;
83550;SDS011;74617;47.082;15.524;2023-12-22T13:55:00;1.48;;;0.80;;
83550;SDS011;74617;47.082;15.524;2023-12-22T13:57:26;2.42;;;0.40;;
83550;SDS011;74617;47.082;15.524;2023-12-22T13:59:51;1.58;;;0.73;;
83550;SDS011;74617;47.082;15.524;2023-12-22T14:02:18;0.88;;;0.43;;
83550;SDS011;74617;47.082;15.524;2023-12-22T14:04:45;2.00;;;0.63;;
83550;SDS011;74617;47.082;15.524;2023-12-22T14:07:10;1.00;;;0.50;;
83550;SDS011;74617;47.082;15.524;2023-12-22T14:09:35;1.52;;;0.73;;
83550;SDS011;74617;47.082;15.524;2023-12-22T14:12:03;2.75;;;0.40;;
83550;SDS011;74617;47.082;15.524;2023-12-22T14:14:30;0.85;;;0.55;;
83550;SDS011;74617;47.082;15.524;2023-12-22T14:16:56;0.70;;;0.55;;
83550;SDS011;74617;47.082;15.524;2023-12-22T14:19:21;0.93;;;0.60;;
83550;SDS011;74617;47.082;15.524;2023-12-22T14:21:47;2.65;;;0.57;;
83550;SDS011;74617;47.082;15.524;2023-12-22T14:24:12;0.98;;;0.60;;
83550;SDS011;74617;47.082;15.524;2023-12-22T14:26:53;2.45;;;0.73;;
83550;SDS011;74617;47.082;15.524;2023-12-22T14:29:19;1.92;;;0.50;;
83550;SDS011;74617;47.082;15.524;2023-12-22T14:31:47;0.88;;;0.43;;
83550;SDS011;74617;47.082;15.524;2023-12-22T14:34:13;1.55;;;0.55;;
83550;SDS011;74617;47.082;15.524;2023-12-22T14:36:39;1.33;;;0.90;;
83550;SDS011;74617;47.082;15.524;2023-12-22T14:39:04;0.77;;;0.40;;
83550;SDS011;74617;47.082;15.524;2023-12-22T14:41:30;3.03;;;0.65;;
83550;SDS011;74617;47.082;15.524;2023-12-22T14:43:56;2.10;;;0.63;;
83550;SDS011;74617;47.082;15.524;2023-12-22T14:46:21;1.10;;;0.70;;
83550;SDS011;74617;47.082;15.524;2023-12-22T14:48:47;2.95;;;1.25;;
83550;SDS011;74617;47.082;15.524;2023-12-22T14:51:12;1.52;;;0.77;;
83550;SDS011;74617;47.082;15.524;2023-12-22T14:53:37;1.55;;;0.55;;
83550;SDS011;74617;47.082;15.524;2023-12-22T14:56:03;1.05;;;0.60;;